createdAt,value
2023-05-03T00:01:01.539Z,100803.47
2023-05-03T00:05:05.295Z,100797.56
2023-05-03T00:09:07.699Z,100796.91
2023-05-03T00:13:09.551Z,100798.38
2023-05-03T00:17:11.372Z,100796.88
2023-05-03T00:21:13.263Z,100798.97
2023-05-03T00:25:15.464Z,100797.69
2023-05-03T00:29:17.267Z,100792.16
2023-05-03T00:33:19.016Z,100790.84
2023-05-03T00:37:21.340Z,100782.00
2023-05-03T00:41:24.564Z,100776.06
2023-05-03T00:45:26.169Z,100778.97
2023-05-03T00:49:28.020Z,100775.13
2023-05-03T00:53:31.714Z,100761.63
2023-05-03T00:57:37.533Z,100756.56
2023-05-03T01:01:39.511Z,100747.72
2023-05-03T01:05:51.813Z,100746.00
2023-05-03T01:10:04.968Z,100739.69
2023-05-03T01:14:32.890Z,100746.22
2023-05-03T01:18:40.059Z,100744.06
2023-05-03T01:22:41.962Z,100744.28
2023-05-03T01:26:43.673Z,100744.28
2023-05-03T01:30:46.371Z,100737.97
2023-05-03T01:34:55.213Z,100737.88
2023-05-03T01:38:56.963Z,100732.38
2023-05-03T01:42:59.864Z,100732.09
2023-05-03T01:47:01.924Z,100728.94
2023-05-03T01:51:04.317Z,100721.34
2023-05-03T01:55:06.862Z,100726.28
2023-05-03T01:59:08.560Z,100724.63
2023-05-03T02:03:10.319Z,100732.16
2023-05-03T02:07:14.898Z,100732.56
2023-05-03T02:11:18.864Z,100737.41
2023-05-03T02:15:20.591Z,100737.56
2023-05-03T02:19:22.280Z,100737.53
2023-05-03T02:23:24.315Z,100739.59
2023-05-03T02:27:26.235Z,100745.00
2023-05-03T02:31:28.300Z,100744.16
2023-05-03T02:35:32.567Z,100746.25
2023-05-03T02:39:34.712Z,100748.53
2023-05-03T02:43:36.846Z,100756.28
2023-05-03T02:47:38.561Z,100753.72
2023-05-03T02:51:41.317Z,100756.66
2023-05-03T02:55:44.025Z,100746.91
2023-05-03T02:59:45.948Z,100764.53
2023-05-03T03:03:48.700Z,100754.16
2023-05-03T03:07:51.002Z,100753.41
2023-05-03T03:11:53.438Z,100747.88
2023-05-03T03:15:56.311Z,100746.59
2023-05-03T03:19:58.627Z,100749.03
2023-05-03T03:24:00.629Z,100753.84
2023-05-03T03:28:02.970Z,100744.34
2023-05-03T03:32:06.555Z,100748.47
2023-05-03T03:36:10.358Z,100759.78
2023-05-03T03:40:16.266Z,100742.94
2023-05-03T03:44:18.772Z,100747.09
2023-05-03T03:48:20.911Z,100748.97
2023-05-03T03:52:24.020Z,100746.13
2023-05-03T03:56:25.759Z,100740.88
2023-05-03T04:00:29.507Z,100741.72
2023-05-03T04:04:40.541Z,100733.91
2023-05-03T04:08:42.432Z,100743.31
2023-05-03T04:12:45.384Z,100744.91
2023-05-03T04:16:50.547Z,100755.00
2023-05-03T04:20:54.225Z,100754.53
2023-05-03T04:24:56.711Z,100752.19
2023-05-03T04:28:59.300Z,100771.75
2023-05-03T04:33:01.508Z,100762.91
2023-05-03T04:37:06.280Z,100772.50
2023-05-03T04:41:08.576Z,100773.34
2023-05-03T04:45:15.544Z,100766.00
2023-05-03T04:49:17.977Z,100779.66
2023-05-03T04:53:19.932Z,100780.69
2023-05-03T04:57:28.216Z,100779.47
2023-05-03T05:01:30.235Z,100778.06
2023-05-03T05:05:38.978Z,100780.41
2023-05-03T05:09:55.505Z,100779.88
2023-05-03T05:14:02.677Z,100785.41
2023-05-03T05:18:09.661Z,100790.13
2023-05-03T05:22:13.936Z,100796.72
2023-05-03T05:26:29.445Z,100782.75
2023-05-03T05:30:33.180Z,100790.69
2023-05-03T05:34:45.272Z,100795.19
2023-05-03T05:43:22.844Z,100789.97
2023-05-03T05:47:42.443Z,100792.84
2023-05-03T05:56:18.302Z,100787.53
2023-05-03T06:00:27.051Z,100790.50
2023-05-03T06:09:01.291Z,100778.75
2023-05-03T06:13:07.050Z,100784.97
2023-05-03T06:17:09.816Z,100778.16
2023-05-03T06:21:12.062Z,100775.97
2023-05-03T06:25:17.956Z,100770.78
2023-05-03T06:29:23.215Z,100773.81
2023-05-03T06:33:25.363Z,100760.38
2023-05-03T06:37:27.571Z,100758.53
2023-05-03T06:41:31.426Z,100763.41
2023-05-03T06:45:33.414Z,100771.03
2023-05-03T06:49:35.349Z,100779.25
2023-05-03T06:53:40.379Z,100782.63
2023-05-03T06:57:45.152Z,100774.81
2023-05-03T07:01:47.353Z,100783.66
2023-05-03T07:05:49.111Z,100783.41
2023-05-03T07:09:52.834Z,100789.25
2023-05-03T07:13:55.049Z,100800.81
2023-05-03T07:18:03.586Z,100784.75
2023-05-03T07:22:05.699Z,100782.88
2023-05-03T07:26:08.281Z,100774.59
2023-05-03T07:30:10.545Z,100771.97
2023-05-03T07:34:12.442Z,100773.81
2023-05-03T07:38:14.359Z,100775.28
2023-05-03T07:42:16.158Z,100761.22
2023-05-03T07:46:19.433Z,100764.19
2023-05-03T07:50:23.845Z,100771.97
2023-05-03T07:54:25.827Z,100771.00
2023-05-03T07:58:39.502Z,100773.78
2023-05-03T08:02:42.375Z,100777.41
2023-05-03T08:06:44.411Z,100771.47
2023-05-03T08:10:46.702Z,100762.72
2023-05-03T08:14:48.350Z,100768.75
2023-05-03T08:18:50.090Z,100754.78
2023-05-03T08:22:52.739Z,100752.81
2023-05-03T08:26:55.527Z,100749.69
2023-05-03T08:30:57.833Z,100752.09
2023-05-03T08:34:59.729Z,100753.28
2023-05-03T08:39:06.582Z,100763.28
2023-05-03T08:43:11.917Z,100761.72
2023-05-03T08:47:16.574Z,100752.94
2023-05-03T08:51:19.614Z,100768.00
2023-05-03T08:55:21.611Z,100768.22
2023-05-03T08:59:24.768Z,100758.97
2023-05-03T09:03:26.611Z,100758.97
2023-05-03T09:07:28.438Z,100752.31
2023-05-03T09:11:31.940Z,100749.06
2023-05-03T09:15:34.762Z,100765.28
2023-05-03T09:19:53.584Z,100766.91
2023-05-03T09:23:55.503Z,100761.19
2023-05-03T09:28:01.799Z,100759.88
2023-05-03T09:32:08.837Z,100758.19
2023-05-03T09:36:11.595Z,100750.81
2023-05-03T09:40:18.471Z,100748.56
2023-05-03T09:44:22.414Z,100723.88
2023-05-03T09:48:26.198Z,100737.25
2023-05-03T09:52:32.558Z,100736.38
2023-05-03T09:56:37.341Z,100734.50
2023-05-03T10:00:42.592Z,100727.38
2023-05-03T10:04:48.546Z,100722.47
2023-05-03T10:09:07.368Z,100714.59
2023-05-03T10:13:12.470Z,100707.91
2023-05-03T10:17:42.937Z,100696.88
2023-05-03T10:22:06.071Z,100709.50
2023-05-03T10:26:08.645Z,100703.09
2023-05-03T10:30:28.779Z,100698.34
2023-05-03T10:34:35.139Z,100701.19
2023-05-03T10:38:37.068Z,100690.84
2023-05-03T10:42:40.081Z,100690.31
2023-05-03T10:46:44.018Z,100693.34
2023-05-03T10:50:45.934Z,100693.38
2023-05-03T10:54:48.054Z,100693.06
2023-05-03T10:58:50.978Z,100690.50
2023-05-03T11:03:12.401Z,100681.34
2023-05-03T11:07:21.858Z,100686.66
2023-05-03T11:11:23.562Z,100681.66
2023-05-03T11:15:25.420Z,100682.75
2023-05-03T11:19:27.341Z,100673.22
2023-05-03T11:23:29.917Z,100658.28
2023-05-03T11:27:31.773Z,100658.13
2023-05-03T11:31:35.811Z,100650.75
2023-05-03T11:35:37.978Z,100656.50
2023-05-03T11:39:39.730Z,100649.31
2023-05-03T11:43:43.107Z,100646.69
2023-05-03T11:47:46.524Z,100643.06
2023-05-03T11:51:50.142Z,100637.03
2023-05-03T11:55:54.972Z,100642.81
2023-05-03T12:00:14.676Z,100636.34
2023-05-03T12:04:17.171Z,100632.31
2023-05-03T12:08:25.199Z,100621.19
2023-05-03T12:12:31.796Z,100620.91
2023-05-03T12:16:56.575Z,100617.34
2023-05-03T12:25:04.656Z,100601.44
2023-05-03T12:29:07.062Z,100600.53
2023-05-03T12:33:10.259Z,100599.41
2023-05-03T12:37:13.286Z,100593.66
2023-05-03T12:45:28.525Z,100582.47
2023-05-03T12:49:30.513Z,100586.53
2023-05-03T12:53:32.641Z,100574.63
2023-05-03T12:57:37.370Z,100571.50
2023-05-03T13:05:45.097Z,100560.38
2023-05-03T13:13:53.256Z,100553.25
2023-05-03T13:17:55.312Z,100543.44
2023-05-03T13:21:57.104Z,100536.81
2023-05-03T13:25:59.456Z,100527.44
2023-05-03T13:30:02.676Z,100519.53
2023-05-03T13:34:04.566Z,100514.38
2023-05-03T13:38:06.370Z,100495.38
2023-05-03T13:42:08.076Z,100503.69
2023-05-03T13:46:10.233Z,100503.63
2023-05-03T13:50:13.398Z,100501.44
2023-05-03T13:54:15.101Z,100488.94
2023-05-03T13:58:16.949Z,100481.69
2023-05-03T14:02:18.840Z,100478.22
2023-05-03T14:06:21.625Z,100477.50
2023-05-03T14:10:23.486Z,100464.81
2023-05-03T14:14:27.720Z,100465.00
2023-05-03T14:18:29.675Z,100473.00
2023-05-03T14:22:33.535Z,100460.06
2023-05-03T14:26:35.341Z,100463.94
2023-05-03T14:30:45.503Z,100447.69
2023-05-03T14:34:47.254Z,100453.03
2023-05-03T14:38:49.219Z,100443.50
2023-05-03T14:42:50.998Z,100443.13
2023-05-03T14:46:53.410Z,100440.06
2023-05-03T14:50:55.353Z,100433.22
2023-05-03T14:54:57.342Z,100441.97
2023-05-03T14:58:59.728Z,100430.41
2023-05-03T15:03:01.876Z,100428.72
2023-05-03T15:07:03.856Z,100438.03
2023-05-03T15:11:07.781Z,100424.25
2023-05-03T15:15:10.464Z,100422.69
2023-05-03T15:19:12.147Z,100421.00
2023-05-03T15:23:13.791Z,100423.47
2023-05-03T15:27:15.505Z,100409.13
2023-05-03T15:31:17.728Z,100416.06
2023-05-03T15:35:21.448Z,100413.03
2023-05-03T15:39:23.320Z,100407.94
2023-05-03T15:43:25.058Z,100419.72
2023-05-03T15:47:29.751Z,100407.88
2023-05-03T15:51:31.757Z,100415.72
2023-05-03T15:55:33.760Z,100398.75
2023-05-03T15:59:36.348Z,100403.34
2023-05-03T16:03:38.137Z,100397.97
2023-05-03T16:07:39.812Z,100386.13
2023-05-03T16:11:41.513Z,100390.38
2023-05-03T16:15:43.823Z,100388.13
2023-05-03T16:19:45.663Z,100383.97
2023-05-03T16:23:49.433Z,100381.94
2023-05-03T16:27:51.166Z,100382.28
2023-05-03T16:31:55.987Z,100367.44
2023-05-03T16:35:57.945Z,100374.28
2023-05-03T16:40:00.197Z,100366.03
2023-05-03T16:44:08.175Z,100372.78
2023-05-03T16:48:11.021Z,100370.91
2023-05-03T16:52:16.330Z,100371.00
2023-05-03T16:56:18.068Z,100366.88
2023-05-03T17:00:21.011Z,100362.44
2023-05-03T17:04:22.803Z,100369.22
2023-05-03T17:08:24.477Z,100369.69
2023-05-03T17:12:26.341Z,100365.06
2023-05-03T17:16:28.834Z,100365.66
2023-05-03T17:20:33.066Z,100357.34
2023-05-03T17:24:34.993Z,100360.78
2023-05-03T17:28:38.451Z,100360.84
2023-05-03T17:32:40.347Z,100363.75
2023-05-03T17:36:42.535Z,100365.53
2023-05-03T17:40:44.773Z,100372.16
2023-05-03T17:44:46.790Z,100375.84
2023-05-03T17:48:48.724Z,100372.84
2023-05-03T17:52:50.660Z,100372.47
2023-05-03T17:56:53.776Z,100372.22
2023-05-03T18:00:56.937Z,100381.53
2023-05-03T18:04:58.918Z,100386.38
2023-05-03T18:09:00.582Z,100377.22
2023-05-03T18:13:04.723Z,100380.09
2023-05-03T18:17:07.583Z,100386.81
2023-05-03T18:21:11.541Z,100393.75
2023-05-03T18:25:13.197Z,100393.41
2023-05-03T18:29:14.998Z,100391.69
2023-05-03T18:33:16.904Z,100395.50
2023-05-03T18:37:18.895Z,100394.25
2023-05-03T18:41:21.065Z,100399.03
2023-05-03T18:45:23.445Z,100404.13
2023-05-03T18:49:25.405Z,100403.59
2023-05-03T18:53:29.999Z,100410.84
2023-05-03T18:57:31.913Z,100411.94
2023-05-03T19:01:34.129Z,100412.00
2023-05-03T19:05:36.114Z,100414.78
2023-05-03T19:09:40.606Z,100418.44
2023-05-03T19:13:47.526Z,100415.13
2023-05-03T19:17:49.278Z,100411.28
2023-05-03T19:21:51.034Z,100415.25
2023-05-03T19:25:52.804Z,100421.69
2023-05-03T19:29:55.268Z,100432.84
2023-05-03T19:33:56.912Z,100426.81
2023-05-03T19:37:58.623Z,100423.84
2023-05-03T19:42:00.466Z,100433.91
2023-05-03T19:46:03.059Z,100431.53
2023-05-03T19:50:06.569Z,100434.09
2023-05-03T19:54:08.523Z,100422.88
2023-05-03T19:58:10.814Z,100424.34
2023-05-03T20:02:12.700Z,100416.72
2023-05-03T20:06:14.495Z,100419.03
2023-05-03T20:10:16.330Z,100423.25
2023-05-03T20:14:18.722Z,100427.72
2023-05-03T20:18:20.491Z,100421.72
2023-05-03T20:22:24.063Z,100413.78
2023-05-03T20:26:25.806Z,100413.09
2023-05-03T20:30:29.304Z,100416.00
2023-05-03T20:34:31.003Z,100413.59
2023-05-03T20:38:33.000Z,100409.03
2023-05-03T20:42:34.675Z,100402.56
2023-05-03T20:46:38.544Z,100401.59
2023-05-03T20:50:40.316Z,100398.72
2023-05-03T20:54:44.449Z,100397.78
2023-05-03T20:58:46.976Z,100401.47
2023-05-03T21:02:53.783Z,100395.25
2023-05-03T21:06:55.698Z,100399.81
2023-05-03T21:10:57.434Z,100407.72
2023-05-03T21:14:59.089Z,100411.19
2023-05-03T21:19:01.750Z,100401.97
2023-05-03T21:23:04.015Z,100399.09
2023-05-03T21:27:05.799Z,100404.25
2023-05-03T21:31:07.539Z,100396.44
2023-05-03T21:35:09.689Z,100389.47
2023-05-03T21:39:12.246Z,100383.59
2023-05-03T21:43:13.972Z,100377.22
2023-05-03T21:47:15.838Z,100369.72
2023-05-03T21:51:21.826Z,100366.13
2023-05-03T21:55:23.651Z,100368.13
2023-05-03T21:59:25.437Z,100359.16
2023-05-03T22:03:28.904Z,100368.50
2023-05-03T22:07:30.848Z,100364.28
2023-05-03T22:11:32.768Z,100358.31
2023-05-03T22:15:34.881Z,100351.38
2023-05-03T22:19:40.716Z,100359.41
2023-05-03T22:23:43.257Z,100361.31
2023-05-03T22:27:45.085Z,100358.09
2023-05-03T22:31:46.887Z,100353.66
2023-05-03T22:35:48.637Z,100357.13
2023-05-03T22:39:50.298Z,100353.41
2023-05-03T22:43:51.968Z,100343.19
2023-05-03T22:47:53.778Z,100344.50
2023-05-03T22:51:55.495Z,100347.06
2023-05-03T22:56:01.622Z,100349.19
2023-05-03T23:00:04.600Z,100344.16
2023-05-03T23:04:06.647Z,100335.88
2023-05-03T23:08:08.385Z,100336.63
2023-05-03T23:12:10.093Z,100325.81
2023-05-03T23:16:11.828Z,100325.13
2023-05-03T23:20:13.665Z,100327.53
2023-05-03T23:24:15.528Z,100330.72
2023-05-03T23:28:17.216Z,100334.44
2023-05-03T23:32:19.675Z,100329.91
2023-05-03T23:36:21.859Z,100327.03
2023-05-03T23:40:24.059Z,100329.66
2023-05-03T23:44:35.161Z,100322.56
2023-05-03T23:48:44.117Z,100327.25
2023-05-03T23:52:45.857Z,100320.56
2023-05-03T23:56:47.476Z,100310.50
